createdAt,value
2022-08-23T00:01:59.347Z,2.70
2022-08-23T00:04:35.054Z,3.00
2022-08-23T00:07:06.326Z,2.83
2022-08-23T00:09:33.027Z,3.03
2022-08-23T00:12:20.423Z,3.30
2022-08-23T00:14:51.454Z,3.00
2022-08-23T00:17:34.065Z,3.30
2022-08-23T00:20:07.408Z,2.95
2022-08-23T00:25:03.785Z,2.97
2022-08-23T00:27:33.667Z,3.25
2022-08-23T00:30:00.951Z,2.92
2022-08-23T00:32:36.781Z,3.00
2022-08-23T00:35:12.624Z,3.03
2022-08-23T00:38:05.922Z,2.85
2022-08-23T00:40:36.278Z,2.88
2022-08-23T00:43:29.767Z,3.08
2022-08-23T00:46:31.639Z,3.05
2022-08-23T00:49:03.424Z,2.80
2022-08-23T00:51:43.037Z,2.83
2022-08-23T00:54:21.501Z,3.00
2022-08-23T00:56:49.721Z,3.67
2022-08-23T00:59:17.717Z,3.10
2022-08-23T01:01:44.803Z,3.00
2022-08-23T01:04:13.234Z,3.35
2022-08-23T01:06:49.978Z,2.88
2022-08-23T01:09:20.345Z,3.20
2022-08-23T01:12:03.226Z,3.08
2022-08-23T01:14:37.778Z,3.05
2022-08-23T01:17:12.094Z,3.03
2022-08-23T01:19:43.755Z,2.83
2022-08-23T01:22:19.096Z,3.20
2022-08-23T01:30:33.784Z,2.95
2022-08-23T01:33:05.297Z,3.30
2022-08-23T01:35:54.896Z,3.03
2022-08-23T01:38:25.967Z,2.83
2022-08-23T01:43:22.915Z,3.17
2022-08-23T01:45:53.422Z,3.47
2022-08-23T01:48:26.604Z,3.40
2022-08-23T01:50:53.477Z,3.55
2022-08-23T01:53:20.623Z,3.00
2022-08-23T01:55:49.816Z,3.28
2022-08-23T01:58:21.528Z,3.60
2022-08-23T02:00:48.666Z,3.40
2022-08-23T02:03:16.380Z,3.55
2022-08-23T02:05:44.999Z,3.00
2022-08-23T02:08:32.744Z,3.50
2022-08-23T02:11:11.195Z,3.35
2022-08-23T02:13:46.869Z,3.33
2022-08-23T02:16:29.124Z,3.13
2022-08-23T02:18:56.867Z,3.47
2022-08-23T02:21:25.804Z,3.08
2022-08-23T02:23:52.475Z,3.70
2022-08-23T02:26:30.836Z,3.13
2022-08-23T02:29:08.677Z,3.13
2022-08-23T02:31:35.821Z,3.28
2022-08-23T02:34:11.339Z,3.30
2022-08-23T02:36:39.217Z,3.30
2022-08-23T02:39:07.288Z,3.35
2022-08-23T02:41:34.921Z,3.17
2022-08-23T02:44:04.489Z,3.10
2022-08-23T02:46:31.382Z,3.47
2022-08-23T02:49:03.596Z,3.38
2022-08-23T02:51:30.380Z,4.05
2022-08-23T02:53:58.288Z,3.10
2022-08-23T02:56:37.545Z,3.10
2022-08-23T02:59:08.117Z,3.13
2022-08-23T03:01:41.614Z,3.10
2022-08-23T03:04:20.662Z,3.47
2022-08-23T03:06:47.527Z,3.50
2022-08-23T03:09:14.524Z,3.35
2022-08-23T03:11:49.186Z,3.33
2022-08-23T03:14:17.240Z,3.30
2022-08-23T03:16:44.538Z,3.40
2022-08-23T03:19:12.305Z,3.20
2022-08-23T03:21:43.333Z,3.50
2022-08-23T03:24:14.783Z,3.60
2022-08-23T03:26:43.727Z,3.35
2022-08-23T03:29:10.944Z,3.63
2022-08-23T03:32:05.320Z,3.40
2022-08-23T03:34:44.036Z,3.50
2022-08-23T03:37:10.744Z,3.83
2022-08-23T03:39:40.098Z,3.13
2022-08-23T03:42:11.320Z,3.20
2022-08-23T03:44:51.588Z,3.47
2022-08-23T03:47:30.203Z,3.58
2022-08-23T03:50:04.447Z,3.60
2022-08-23T03:52:32.918Z,3.70
2022-08-23T03:55:00.223Z,3.22
2022-08-23T03:57:33.854Z,3.75
2022-08-23T04:00:03.712Z,4.00
2022-08-23T04:02:41.075Z,3.50
2022-08-23T04:05:10.639Z,3.80
2022-08-23T04:07:48.766Z,4.28
2022-08-23T04:10:15.530Z,3.58
2022-08-23T04:12:43.871Z,3.75
2022-08-23T04:15:15.795Z,4.05
2022-08-23T04:17:42.525Z,4.22
2022-08-23T04:20:10.299Z,4.47
2022-08-23T04:22:51.893Z,4.45
2022-08-23T04:25:33.539Z,4.20
2022-08-23T04:28:02.882Z,3.90
2022-08-23T04:30:33.121Z,3.83
2022-08-23T04:33:09.908Z,3.80
2022-08-23T04:35:40.974Z,3.65
2022-08-23T04:38:24.777Z,3.90
2022-08-23T04:41:16.410Z,3.88
2022-08-23T04:43:48.752Z,4.82
2022-08-23T04:46:16.232Z,4.53
2022-08-23T04:48:46.464Z,4.40
2022-08-23T04:51:14.437Z,4.13
2022-08-23T04:53:42.021Z,4.30
2022-08-23T04:56:27.724Z,3.97
2022-08-23T04:58:54.510Z,4.30
2022-08-23T05:01:29.196Z,4.30
2022-08-23T05:03:58.175Z,3.90
2022-08-23T05:06:30.556Z,4.05
2022-08-23T05:08:57.872Z,3.95
2022-08-23T05:11:35.322Z,4.13
2022-08-23T05:14:02.453Z,3.92
2022-08-23T05:16:29.912Z,4.22
2022-08-23T05:19:17.423Z,4.38
2022-08-23T05:21:46.757Z,4.03
2022-08-23T05:24:16.519Z,4.45
2022-08-23T05:26:48.431Z,4.03
2022-08-23T05:29:23.408Z,4.68
2022-08-23T05:32:18.612Z,4.80
2022-08-23T05:34:45.455Z,4.20
2022-08-23T05:37:13.113Z,4.43
2022-08-23T05:40:32.472Z,3.58
2022-08-23T05:43:12.722Z,4.43
2022-08-23T05:45:41.828Z,4.32
2022-08-23T05:48:10.860Z,4.05
2022-08-23T05:50:47.983Z,3.92
2022-08-23T05:53:17.631Z,4.20
2022-08-23T05:55:46.421Z,3.97
2022-08-23T05:58:18.006Z,3.97
2022-08-23T06:00:49.409Z,4.32
2022-08-23T06:03:18.993Z,4.25
2022-08-23T06:05:49.218Z,4.20
2022-08-23T06:08:15.904Z,4.05
2022-08-23T06:10:45.906Z,4.00
2022-08-23T06:13:38.142Z,4.18
2022-08-23T06:16:14.231Z,3.70
2022-08-23T06:24:49.552Z,3.70
2022-08-23T06:27:19.691Z,3.20
2022-08-23T06:29:48.325Z,3.53
2022-08-23T06:32:45.588Z,3.70
2022-08-23T06:35:50.133Z,3.42
2022-08-23T06:38:24.809Z,3.25
2022-08-23T06:41:05.898Z,3.55
2022-08-23T06:43:42.357Z,3.42
2022-08-23T06:46:23.541Z,3.17
2022-08-23T06:48:52.653Z,3.08
2022-08-23T06:51:26.637Z,3.08
2022-08-23T06:54:13.832Z,3.38
2022-08-23T06:56:47.524Z,3.10
2022-08-23T06:59:20.681Z,3.03
2022-08-23T07:02:20.994Z,3.63
2022-08-23T07:05:06.666Z,3.50
2022-08-23T07:07:37.679Z,3.15
2022-08-23T07:10:09.586Z,3.15
2022-08-23T07:13:02.492Z,3.25
2022-08-23T07:15:29.606Z,3.10
2022-08-23T07:17:56.287Z,2.47
2022-08-23T07:20:23.786Z,3.10
2022-08-23T07:22:52.958Z,3.20
2022-08-23T07:25:19.826Z,2.83
2022-08-23T07:30:21.720Z,2.70
2022-08-23T07:32:53.577Z,3.17
2022-08-23T07:35:28.232Z,2.88
2022-08-23T07:37:57.707Z,2.67
2022-08-23T07:40:39.012Z,2.97
2022-08-23T07:43:10.838Z,2.65
2022-08-23T07:45:42.589Z,2.70
2022-08-23T07:48:11.440Z,2.70
2022-08-23T07:51:09.876Z,2.75
2022-08-23T07:53:39.755Z,3.00
2022-08-23T07:56:12.417Z,2.30
2022-08-23T07:58:58.129Z,2.30
2022-08-23T08:01:40.450Z,2.85
2022-08-23T08:04:07.613Z,2.70
2022-08-23T08:06:40.420Z,2.78
2022-08-23T08:09:09.792Z,2.53
2022-08-23T08:11:46.581Z,2.85
2022-08-23T08:14:18.575Z,2.40
2022-08-23T08:16:55.514Z,2.50
2022-08-23T08:19:48.023Z,2.50
2022-08-23T08:22:49.210Z,2.78
2022-08-23T08:25:26.881Z,2.63
2022-08-23T08:28:02.465Z,2.35
2022-08-23T08:30:36.639Z,2.22
2022-08-23T08:33:04.725Z,2.42
2022-08-23T08:35:36.610Z,2.42
2022-08-23T08:38:06.357Z,2.10
2022-08-23T08:40:39.457Z,2.55
2022-08-23T08:43:45.182Z,2.83
2022-08-23T08:46:34.072Z,2.55
2022-08-23T08:49:09.425Z,2.45
2022-08-23T08:51:55.564Z,2.15
2022-08-23T08:54:25.534Z,2.25
2022-08-23T08:57:00.574Z,2.80
2022-08-23T09:00:01.244Z,2.40
2022-08-23T09:02:34.384Z,2.30
2022-08-23T09:05:13.978Z,2.60
2022-08-23T09:08:11.765Z,3.00
2022-08-23T09:10:53.138Z,2.50
2022-08-23T09:13:46.251Z,2.40
2022-08-23T09:16:45.885Z,2.40
2022-08-23T09:19:15.767Z,2.88
2022-08-23T09:22:12.937Z,2.70
2022-08-23T09:24:43.100Z,2.92
2022-08-23T09:27:23.588Z,2.30
2022-08-23T09:29:58.118Z,2.47
2022-08-23T09:32:38.396Z,2.67
2022-08-23T09:35:18.804Z,2.40
2022-08-23T09:37:56.995Z,2.65
2022-08-23T09:40:38.945Z,2.50
2022-08-23T09:43:14.236Z,2.50
2022-08-23T09:48:32.894Z,2.30
2022-08-23T09:51:25.219Z,2.63
2022-08-23T09:54:09.085Z,2.30
2022-08-23T09:56:44.382Z,2.40
2022-08-23T09:59:43.499Z,2.97
2022-08-23T10:02:36.103Z,2.30
2022-08-23T10:05:40.628Z,3.00
2022-08-23T10:08:32.489Z,2.80
2022-08-23T10:11:17.139Z,2.60
2022-08-23T10:13:44.284Z,2.60
2022-08-23T10:16:17.889Z,2.45
2022-08-23T10:19:02.697Z,2.38
2022-08-23T10:21:47.654Z,2.65
2022-08-23T10:24:20.669Z,2.58
2022-08-23T10:26:59.447Z,2.10
2022-08-23T10:29:40.323Z,2.30
2022-08-23T10:32:11.813Z,2.40
2022-08-23T10:35:07.459Z,2.38
2022-08-23T10:38:05.242Z,2.50
2022-08-23T10:40:35.508Z,2.60
2022-08-23T10:43:40.214Z,2.70
2022-08-23T10:46:08.501Z,2.58
2022-08-23T10:48:51.417Z,2.25
2022-08-23T11:06:23.744Z,2.35
2022-08-23T11:09:18.246Z,2.05
2022-08-23T11:12:10.956Z,2.30
2022-08-23T11:14:57.275Z,2.40
2022-08-23T11:17:34.129Z,2.00
2022-08-23T11:20:11.589Z,2.40
2022-08-23T11:23:35.867Z,2.10
2022-08-23T11:26:30.590Z,1.98
2022-08-23T11:29:07.779Z,2.08
2022-08-23T11:31:54.478Z,1.95
2022-08-23T11:34:31.520Z,1.95
2022-08-23T11:37:19.754Z,2.00
2022-08-23T11:39:57.264Z,2.13
2022-08-23T11:42:37.024Z,1.60
2022-08-23T11:45:23.114Z,2.10
2022-08-23T11:48:13.088Z,1.83
2022-08-23T11:50:59.456Z,1.85
2022-08-23T11:53:48.510Z,1.67
2022-08-23T11:56:21.352Z,1.92
2022-08-23T11:59:13.045Z,1.70
2022-08-23T12:01:44.957Z,1.92
2022-08-23T12:07:00.869Z,1.95
2022-08-23T12:09:30.066Z,1.67
2022-08-23T12:11:56.678Z,1.70
2022-08-23T12:14:44.683Z,1.70
2022-08-23T12:17:17.671Z,1.90
2022-08-23T12:19:53.429Z,1.80
2022-08-23T12:22:24.196Z,2.20
2022-08-23T12:24:56.502Z,2.13
2022-08-23T12:27:45.317Z,1.15
2022-08-23T12:30:20.377Z,1.50
2022-08-23T12:33:10.501Z,1.83
2022-08-23T12:35:42.908Z,1.63
2022-08-23T12:38:15.590Z,1.65
2022-08-23T12:40:50.390Z,1.63
2022-08-23T12:43:35.948Z,2.00
2022-08-23T12:48:45.904Z,1.77
2022-08-23T12:51:13.310Z,1.52
2022-08-23T12:53:45.058Z,1.60
2022-08-23T12:56:44.762Z,1.50
2022-08-23T12:59:45.752Z,1.73
2022-08-23T13:03:14.035Z,1.63
2022-08-23T13:05:55.177Z,1.50
2022-08-23T13:11:14.102Z,1.40
2022-08-23T13:13:45.170Z,1.58
2022-08-23T13:16:37.230Z,1.40
2022-08-23T13:19:31.338Z,1.45
2022-08-23T13:22:17.123Z,1.70
2022-08-23T13:27:56.594Z,1.80
2022-08-23T13:30:32.961Z,1.70
2022-08-23T13:33:08.654Z,1.50
2022-08-23T13:35:38.680Z,1.50
2022-08-23T13:38:18.325Z,1.80
2022-08-23T13:41:08.063Z,1.30
2022-08-23T13:43:37.528Z,1.70
2022-08-23T13:46:22.903Z,1.77
2022-08-23T13:49:13.039Z,1.50
2022-08-23T13:52:45.914Z,1.50
2022-08-23T13:54:53.236Z,1.63
2022-08-23T13:57:29.563Z,1.48
2022-08-23T13:59:59.011Z,2.03
2022-08-23T14:02:25.907Z,1.75
2022-08-23T14:04:52.908Z,1.58
2022-08-23T14:07:22.162Z,2.08
2022-08-23T14:09:54.992Z,1.30
2022-08-23T14:12:27.944Z,1.30
2022-08-23T14:14:58.386Z,1.40
2022-08-23T14:17:26.374Z,1.52
2022-08-23T14:23:48.617Z,1.63
2022-08-23T14:26:17.667Z,1.80
2022-08-23T14:28:50.179Z,1.50
2022-08-23T14:31:21.377Z,1.83
2022-08-23T14:34:02.148Z,1.77
2022-08-23T14:36:33.581Z,1.73
2022-08-23T14:39:02.454Z,1.70
2022-08-23T14:41:30.487Z,1.63
2022-08-23T14:44:00.982Z,1.37
2022-08-23T14:49:23.260Z,2.00
2022-08-23T14:51:50.387Z,1.30
2022-08-23T14:54:22.146Z,1.30
2022-08-23T14:56:51.483Z,1.77
2022-08-23T14:59:21.326Z,1.80
2022-08-23T15:01:53.982Z,1.67
2022-08-23T15:04:22.906Z,1.55
2022-08-23T15:07:14.387Z,1.50
2022-08-23T15:09:38.339Z,1.40
2022-08-23T15:14:57.185Z,1.85
2022-08-23T15:17:31.744Z,1.50
2022-08-23T15:20:02.263Z,1.50
2022-08-23T15:22:29.009Z,1.60
2022-08-23T15:25:04.908Z,1.65
2022-08-23T15:27:32.281Z,1.38
2022-08-23T15:30:01.004Z,1.50
2022-08-23T15:32:27.735Z,1.70
2022-08-23T15:34:57.130Z,1.50
2022-08-23T15:37:24.839Z,1.30
2022-08-23T15:39:54.413Z,1.40
2022-08-23T15:42:21.125Z,1.40
2022-08-23T15:44:48.960Z,1.30
2022-08-23T15:47:30.321Z,1.30
2022-08-23T15:49:58.445Z,1.58
2022-08-23T15:52:27.477Z,1.38
2022-08-23T15:54:54.463Z,1.33
2022-08-23T15:57:27.976Z,1.50
2022-08-23T15:59:59.923Z,1.70
2022-08-23T16:02:26.610Z,2.65
2022-08-23T16:04:53.288Z,2.38
2022-08-23T16:07:20.819Z,3.00
2022-08-23T16:09:47.642Z,3.00
2022-08-23T16:12:18.631Z,3.25
2022-08-23T16:14:45.318Z,1.70
2022-08-23T16:17:14.341Z,1.75
2022-08-23T16:19:44.265Z,1.70
2022-08-23T16:22:11.398Z,1.40
2022-08-23T16:24:43.273Z,1.83
2022-08-23T16:27:10.305Z,1.77
2022-08-23T16:29:40.354Z,1.70
2022-08-23T16:32:08.137Z,1.67
2022-08-23T16:34:35.323Z,1.70
2022-08-23T16:37:08.982Z,1.50
2022-08-23T16:39:36.438Z,1.92
2022-08-23T16:42:05.229Z,1.33
2022-08-23T16:44:33.623Z,1.80
2022-08-23T16:47:09.059Z,1.30
2022-08-23T16:49:36.602Z,1.60
2022-08-23T16:52:03.819Z,1.50
2022-08-23T16:54:30.787Z,1.65
2022-08-23T16:56:57.456Z,1.50
2022-08-23T17:10:43.397Z,1.45
2022-08-23T17:13:16.582Z,1.80
2022-08-23T17:15:43.389Z,1.88
2022-08-23T17:18:10.280Z,1.40
2022-08-23T17:20:38.557Z,1.60
2022-08-23T17:23:08.964Z,1.80
2022-08-23T17:25:36.782Z,1.58
2022-08-23T17:28:05.445Z,1.80
2022-08-23T17:30:34.883Z,1.90
2022-08-23T17:33:04.514Z,1.70
2022-08-23T17:35:36.771Z,1.80
2022-08-23T17:38:12.016Z,1.73
2022-08-23T17:40:41.400Z,1.77
2022-08-23T17:43:11.956Z,1.65
2022-08-23T17:45:47.486Z,1.52
2022-08-23T17:48:18.354Z,1.92
2022-08-23T17:50:48.147Z,1.95
2022-08-23T17:53:18.004Z,1.80
2022-08-23T17:55:50.326Z,2.10
2022-08-23T17:58:20.572Z,1.80
2022-08-23T18:00:51.882Z,1.63
2022-08-23T18:03:30.438Z,2.13
2022-08-23T18:05:59.843Z,1.80
2022-08-23T18:08:26.546Z,1.90
2022-08-23T18:10:55.667Z,2.20
2022-08-23T18:13:30.166Z,2.22
2022-08-23T18:15:58.150Z,1.92
2022-08-23T18:18:31.632Z,1.75
2022-08-23T18:21:02.770Z,1.73
2022-08-23T18:23:29.456Z,2.03
2022-08-23T18:26:05.376Z,1.95
2022-08-23T18:29:03.459Z,1.70
2022-08-23T18:31:33.140Z,1.85
2022-08-23T18:34:00.737Z,1.83
2022-08-23T18:36:29.240Z,1.60
2022-08-23T18:38:56.756Z,1.80
2022-08-23T18:41:32.102Z,2.38
2022-08-23T18:44:08.506Z,2.30
2022-08-23T18:46:39.929Z,2.63
2022-08-23T18:49:08.440Z,1.75
2022-08-23T18:51:38.565Z,1.83
2022-08-23T18:54:05.669Z,1.85
2022-08-23T18:56:36.372Z,2.05
2022-08-23T18:59:03.510Z,2.00
2022-08-23T19:01:40.694Z,1.92
2022-08-23T19:04:09.165Z,2.50
2022-08-23T19:06:36.214Z,1.90
2022-08-23T19:09:16.153Z,1.85
2022-08-23T19:11:49.674Z,1.80
2022-08-23T19:14:18.673Z,1.92
2022-08-23T19:16:48.460Z,2.00
2022-08-23T19:19:16.191Z,2.08
2022-08-23T19:21:44.101Z,1.80
2022-08-23T19:24:16.442Z,2.15
2022-08-23T19:27:09.526Z,2.15
2022-08-23T19:29:42.532Z,1.80
2022-08-23T19:32:13.281Z,1.98
2022-08-23T19:34:54.132Z,2.10
2022-08-23T19:37:23.343Z,1.90
2022-08-23T19:39:50.114Z,2.05
2022-08-23T19:42:17.842Z,1.85
2022-08-23T19:44:50.652Z,2.10
2022-08-23T19:47:19.784Z,2.20
2022-08-23T19:49:51.706Z,2.03
2022-08-23T19:52:18.457Z,2.00
2022-08-23T19:54:45.145Z,1.98
2022-08-23T19:57:12.013Z,2.25
2022-08-23T19:59:41.633Z,1.98
2022-08-23T20:02:13.209Z,1.90
2022-08-23T20:04:43.238Z,2.00
2022-08-23T20:07:14.355Z,1.92
2022-08-23T20:09:43.219Z,2.20
2022-08-23T20:12:14.946Z,2.10
2022-08-23T20:14:42.673Z,1.60
2022-08-23T20:17:10.822Z,2.30
2022-08-23T20:19:40.329Z,2.28
2022-08-23T20:22:29.622Z,2.00
2022-08-23T20:24:57.276Z,2.17
2022-08-23T20:27:30.881Z,1.95
2022-08-23T20:29:59.550Z,2.15
2022-08-23T20:32:27.698Z,2.13
2022-08-23T20:34:57.243Z,2.10
2022-08-23T20:37:24.801Z,2.35
2022-08-23T20:39:51.816Z,2.05
2022-08-23T20:42:19.700Z,2.30
2022-08-23T20:44:48.452Z,2.00
2022-08-23T20:47:15.326Z,2.13
2022-08-23T20:49:50.532Z,1.98
2022-08-23T20:52:17.610Z,2.10
2022-08-23T20:54:46.660Z,2.13
2022-08-23T20:57:13.583Z,2.00
2022-08-23T20:59:45.398Z,2.53
2022-08-23T21:02:12.443Z,1.88
2022-08-23T21:04:40.271Z,2.10
2022-08-23T21:07:07.764Z,2.00
2022-08-23T21:09:34.504Z,2.20
2022-08-23T21:12:01.755Z,2.20
2022-08-23T21:14:28.610Z,1.80
2022-08-23T21:16:55.727Z,1.92
2022-08-23T21:19:25.885Z,2.10
2022-08-23T21:21:52.932Z,2.03
2022-08-23T21:24:19.707Z,2.20
2022-08-23T21:26:50.649Z,1.90
2022-08-23T21:29:17.376Z,2.30
2022-08-23T21:31:44.167Z,2.33
2022-08-23T21:34:13.650Z,2.20
2022-08-23T21:36:40.493Z,1.85
2022-08-23T21:39:07.764Z,2.17
2022-08-23T21:41:41.484Z,1.90
2022-08-23T21:44:13.043Z,2.03
2022-08-23T21:46:42.487Z,1.90
2022-08-23T21:49:15.334Z,1.73
2022-08-23T21:51:47.594Z,2.00
2022-08-23T21:54:17.332Z,2.47
2022-08-23T21:56:49.664Z,2.15
2022-08-23T22:01:47.474Z,2.17
2022-08-23T22:04:15.171Z,1.90
2022-08-23T22:06:46.952Z,2.22
2022-08-23T22:09:19.677Z,2.30
2022-08-23T22:11:55.122Z,2.25
2022-08-23T22:14:24.199Z,2.05
2022-08-23T22:16:55.187Z,2.13
2022-08-23T22:19:22.820Z,2.17
2022-08-23T22:21:52.392Z,2.42
2022-08-23T22:24:25.273Z,2.22
2022-08-23T22:26:55.386Z,2.17
2022-08-23T22:29:22.759Z,2.28
2022-08-23T22:31:50.923Z,2.38
2022-08-23T22:34:17.969Z,2.35
2022-08-23T22:36:44.685Z,2.15
2022-08-23T22:39:22.171Z,1.83
2022-08-23T22:41:49.656Z,2.10
2022-08-23T22:44:18.758Z,2.40
2022-08-23T22:46:49.706Z,2.35
2022-08-23T22:49:16.459Z,2.30
2022-08-23T22:51:43.750Z,2.42
2022-08-23T22:54:11.047Z,2.28
2022-08-23T22:56:46.888Z,2.22
2022-08-23T22:59:17.718Z,2.40
2022-08-23T23:01:51.616Z,2.08
2022-08-23T23:04:26.513Z,2.17
2022-08-23T23:06:54.355Z,2.85
2022-08-23T23:09:21.451Z,2.30
2022-08-23T23:11:49.339Z,2.60
2022-08-23T23:14:20.588Z,2.20
2022-08-23T23:16:52.395Z,2.50
2022-08-23T23:19:38.155Z,2.30
2022-08-23T23:22:07.289Z,2.00
2022-08-23T23:24:37.388Z,2.40
2022-08-23T23:27:05.040Z,2.75
2022-08-23T23:29:34.589Z,2.58
2022-08-23T23:32:01.459Z,2.40
2022-08-23T23:34:30.938Z,2.30
2022-08-23T23:36:58.680Z,2.67
2022-08-23T23:39:27.305Z,2.40
2022-08-23T23:41:57.801Z,2.45
2022-08-23T23:44:32.321Z,2.40
2022-08-23T23:47:07.571Z,2.53
2022-08-23T23:49:34.386Z,2.55
2022-08-23T23:52:03.455Z,2.10
2022-08-23T23:54:34.898Z,2.33
2022-08-23T23:57:03.387Z,2.83
2022-08-23T23:59:34.201Z,2.58
